Latest Weather Observations for Maria Island

IDT60801

Issued at 6:51 pm EST Wednesday 29 June 2022 (issued every 10 minutes, with the page automatically refreshed every 10 minutes)

About weather observations | Map of weather stations | Latest weather observations for TAS | Other Formats
Station Details ID: 092124 Name: MARIA ISLAND (POINT LESUEUR) Lat: -42.66 Lon: 148.02 Height: 28.0 m
Data from the previous 72 hours. | See also: Recent months at Maria Island
Date/Time
EST
Temp
°C
App
Temp
°C
Dew
Point
°C
Rel
Hum
%
Delta-T
°C
Wind Press
QNH
hPa
Press
MSL
hPa
Rain since
9am
mm
Dir  Spd
km/h
Gust
km/h
Spd
kts
Gust
kts
29/06:30pm 11.6 6.1 5.9 68 2.7 NNW 24 30 13 16 1015.1 1015.1 0.0
29/06:00pm 11.3 5.6 6.8 74 2.1 NNW 26 32 14 17 1014.8 1014.8 0.0
29/05:30pm 11.5 5.4 6.6 72 2.3 N 28 30 15 16 1014.7 1014.7 0.0
29/05:00pm 11.7 7.3 7.4 75 2.1 NNW 20 26 11 14 1014.7 1014.7 0.0
29/04:30pm 11.9 6.9 6.6 70 2.5 NW 22 28 12 15 1014.7 1014.7 0.0
29/04:00pm 11.9 7.5 7.4 74 2.2 N 20 26 11 14 1014.7 1014.7 0.0
29/03:30pm 12.2 8.4 7.5 73 2.3 N 17 20 9 11 1014.9 1014.9 0.0
29/03:00pm 12.5 8.1 7.2 70 2.6 NNW 20 24 11 13 1014.8 1014.8 0.0
29/02:30pm 12.9 8.3 6.5 65 3.1 NW 20 26 11 14 1015.2 1015.2 0.0
29/02:00pm 12.8 8.3 6.8 67 2.9 NNW 20 26 11 14 1015.4 1015.4 0.0
29/01:30pm 12.5 8.6 7.0 69 2.6 NNW 17 20 9 11 1015.9 1015.9 0.0
29/01:00pm 12.4 7.9 6.2 66 2.9 NNW 19 24 10 13 1016.3 1016.3 0.0
29/12:30pm 11.7 8.4 6.4 70 2.5 N 13 15 7 8 1016.7 1016.7 0.0
29/12:00pm 11.7 7.2 6.0 68 2.7 NNW 19 24 10 13 1016.8 1016.8 0.0
29/11:30am 11.1 5.1 5.4 68 2.6 NW 26 32 14 17 1017.3 1017.3 0.0
29/11:00am 11.0 6.4 5.5 69 2.5 NW 19 26 10 14 1018.2 1018.2 0.0
29/10:30am 10.3 5.6 5.9 74 2.0 N 20 24 11 13 1018.5 1018.5 0.0
29/10:00am 10.1 5.3 5.7 74 2.0 NNW 20 24 11 13 1018.8 1018.8 0.0
29/09:30am 9.8 5.1 6.2 78 1.7 NNW 20 24 11 13 1019.0 1019.0 0.0
29/09:00am 9.7 4.2 6.1 78 1.7 NNW 24 30 13 16 1019.0 1019.0 0.0
29/08:30am 9.6 3.0 6.1 79 1.6 NNW 30 33 16 18 1019.1 1019.1 0.0
29/08:00am 9.6 3.0 6.0 78 1.7 NNW 30 33 16 18 1019.1 1019.1 0.0
29/07:30am 9.6 5.3 6.9 83 1.3 NNW 19 20 10 11 1019.5 1019.5 0.0
29/07:00am 9.6 3.5 6.5 81 1.4 WNW 28 32 15 17 1019.3 1019.3 0.0
29/06:30am 9.4 5.8 6.7 83 1.3 WNW 15 19 8 10 1019.4 1019.4 0.0
29/06:00am 9.7 5.2 7.0 83 1.3 WNW 20 24 11 13 1019.5 1019.5 0.0
29/05:30am 9.9 6.5 7.5 85 1.1 WNW 15 15 8 8 1019.5 1019.5 0.0
29/05:00am 10.1 7.1 7.5 84 1.2 NW 13 15 7 8 1019.4 1019.4 0.0
29/04:30am 10.4 7.0 7.8 84 1.3 NW 15 20 8 11 1019.4 1019.4 0.0
29/04:00am 10.6 6.5 8.0 84 1.3 NW 19 20 10 11 1019.4 1019.4 0.0
29/03:30am 10.8 5.4 7.9 82 1.4 NW 26 30 14 16 1019.7 1019.7 0.0
29/03:00am 10.9 5.1 8.0 82 1.4 NW 28 32 15 17 1019.6 1019.6 0.0
29/02:30am 11.0 5.6 8.1 82 1.4 NW 26 30 14 16 1019.7 1019.7 0.0
29/02:00am 11.1 6.1 8.1 82 1.5 NW 24 28 13 15 1019.9 1019.9 0.0
29/01:30am 11.0 5.6 8.1 82 1.4 NW 26 28 14 15 1019.7 1019.7 0.0
29/01:00am 11.1 4.6 8.0 81 1.5 NW 32 33 17 18 1020.0 1020.0 0.0
29/12:30am 11.2 5.2 8.6 84 1.3 NW 30 33 16 18 1020.0 1020.0 0.0
29/12:00am 11.3 5.3 8.5 83 1.4 NW 30 39 16 21 1020.2 1020.2 0.0
 
Date/Time
EST
Temp
°C
App
Temp
°C
Dew
Point
°C
Rel
Hum
%
Delta-T
°C
Wind Press
QNH
hPa
Press
MSL
hPa
Rain since
9am
mm
Dir  Spd
km/h
Gust
km/h
Spd
kts
Gust
kts
28/11:30pm 11.2 6.7 8.6 84 1.3 NW 22 26 12 14 1021.0 1021.0 0.0
28/11:00pm 11.2 6.8 8.9 86 1.1 NNW 22 26 12 14 1020.9 1020.9 0.0
28/10:30pm 11.5 5.9 8.9 84 1.3 NNW 28 32 15 17 1021.2 1021.2 0.0
28/10:00pm 11.5 6.0 9.1 85 1.2 NNW 28 32 15 17 1021.3 1021.3 0.0
28/09:30pm 11.6 5.1 9.0 84 1.3 NNW 33 37 18 20 1021.0 1021.0 0.0
28/09:00pm 11.7 5.4 9.1 84 1.3 NNW 32 35 17 19 1021.2 1021.2 0.0
28/08:30pm 11.7 5.4 9.1 84 1.3 NNW 32 35 17 19 1021.2 1021.2 0.0
28/08:00pm 11.8 5.9 9.2 84 1.3 NNW 30 33 16 18 1021.1 1021.1 0.0
28/07:30pm 11.9 6.9 9.5 85 1.2 NNW 26 28 14 15 1021.4 1021.4 0.0
28/07:00pm 11.9 6.5 9.5 85 1.2 N 28 30 15 16 1021.4 1021.4 0.0
28/06:30pm 11.7 7.4 9.3 85 1.2 N 22 26 12 14 1021.7 1021.7 0.0
28/06:00pm 11.8 7.5 9.2 84 1.3 N 22 26 12 14 1021.7 1021.7 0.0
28/05:30pm 11.7 7.3 9.1 84 1.3 N 22 24 12 13 1021.5 1021.5 0.0
28/05:00pm 11.6 6.3 8.6 82 1.5 N 26 30 14 16 1021.3 1021.3 0.0
28/04:30pm 11.6 6.3 8.5 81 1.5 N 26 30 14 16 1021.2 1021.2 0.0
28/04:00pm 11.4 6.8 8.1 80 1.6 NNE 22 28 12 15 1021.2 1021.2 0.0
28/03:30pm 11.4 7.7 8.1 80 1.6 N 17 20 9 11 1021.5 1021.5 0.0
28/03:00pm 11.6 7.5 7.7 77 1.9 NNW 19 24 10 13 1021.5 1021.5 0.0
28/02:30pm 11.5 7.7 7.6 77 1.9 NNW 17 20 9 11 1021.6 1021.6 0.0
28/02:00pm 11.7 8.6 7.2 74 2.2 NNW 13 19 7 10 1021.7 1021.7 0.0
28/01:30pm 11.4 7.2 7.3 76 2.0 N 19 24 10 13 1021.5 1021.5 0.0
28/01:00pm 11.2 6.0 7.3 77 1.9 NNW 24 32 13 17 1021.6 1021.6 0.0
28/12:30pm 11.1 3.5 7.6 79 1.7 N 37 44 20 24 1021.2 1021.2 0.0
28/12:00pm 10.8 4.1 7.5 80 1.6 N 32 39 17 21 1021.9 1021.9 0.0
28/11:30am 10.5 2.9 7.4 81 1.5 NNW 37 43 20 23 1022.6 1022.7 0.0
28/11:00am 10.2 2.5 7.1 81 1.5 N 37 43 20 23 1023.1 1023.2 0.0
28/10:30am 9.9 1.8 7.0 82 1.4 N 39 44 21 24 1023.4 1023.5 0.0
28/10:00am 9.8 3.3 6.7 81 1.4 N 30 33 16 18 1023.8 1023.9 0.0
28/09:30am 9.7 3.6 6.6 81 1.4 N 28 32 15 17 1024.4 1024.5 0.0
28/09:00am 9.5 4.1 6.2 80 1.5 N 24 30 13 16 1024.7 1024.8 0.0
28/08:30am 9.3 3.0 5.9 79 1.6 N 28 33 15 18 1024.2 1024.3 0.0
28/08:00am 9.4 2.4 6.1 80 1.5 N 32 37 17 20 1023.9 1024.0 0.0
28/07:30am 9.0 3.0 5.4 78 1.6 N 26 30 14 16 1024.6 1024.7 0.0
28/07:00am 8.7 3.0 5.1 78 1.6 NNW 24 30 13 16 1024.8 1024.9 0.0
28/06:30am 8.5 3.1 4.7 77 1.7 NNW 22 32 12 17 1024.8 1024.9 0.0
28/06:00am 8.7 1.3 4.9 77 1.7 N 33 39 18 21 1024.7 1024.8 0.0
28/05:30am 8.7 0.9 5.1 78 1.6 NNW 35 43 19 23 1024.4 1024.5 0.0
28/05:00am 7.9 1.2 3.9 76 1.7 NW 28 32 15 17 1024.5 1024.6 0.0
28/04:30am 7.8 2.6 3.5 74 1.8 NW 20 28 11 15 1024.6 1024.7 0.0
28/04:00am 7.8 2.8 3.5 74 1.8 NW 19 22 10 12 1024.6 1024.7 0.0
28/03:30am 7.9 1.6 3.6 74 1.8 NNW 26 35 14 19 1024.4 1024.5 0.0
28/03:00am 8.1 1.4 3.6 73 1.9 NNW 28 32 15 17 1024.7 1024.8 0.0
28/02:30am 8.3 3.2 3.9 74 1.9 N 20 26 11 14 1025.2 1025.3 0.0
28/02:00am 8.1 2.4 3.0 70 2.1 N 22 26 12 14 1025.6 1025.7 0.0
28/01:30am 8.2 2.5 3.1 70 2.2 NNW 22 26 12 14 1025.9 1026.0 0.0
28/01:00am 7.7 3.4 3.0 72 2.0 NW 15 19 8 10 1026.3 1026.4 0.0
28/12:30am 8.4 1.3 3.3 70 2.2 N 30 33 16 18 1025.8 1025.9 0.0
28/12:00am 8.3 0.7 2.8 68 2.3 N 32 37 17 20 1026.6 1026.7 0.0
 
Date/Time
EST
Temp
°C
App
Temp
°C
Dew
Point
°C
Rel
Hum
%
Delta-T
°C
Wind Press
QNH
hPa
Press
MSL
hPa
Rain since
9am
mm
Dir  Spd
km/h
Gust
km/h
Spd
kts
Gust
kts
27/11:30pm 8.3 1.9 3.0 69 2.2 NNW 26 33 14 18 1027.0 1027.1 0.0
27/11:00pm 8.4 2.0 3.1 69 2.2 N 26 30 14 16 1027.3 1027.4 0.0
27/10:30pm 7.5 2.5 3.6 76 1.7 N 19 20 10 11 1027.5 1027.6 0.0
27/10:00pm 8.3 1.8 2.8 68 2.3 NNW 26 30 14 16 1028.2 1028.3 0.0
27/09:30pm 8.4 2.6 2.2 65 2.6 NNW 22 30 12 16 1028.1 1028.2 0.0
27/09:00pm 8.3 2.4 1.9 64 2.6 N 22 26 12 14 1028.1 1028.2 0.0
27/08:30pm 8.2 2.3 3.7 73 1.9 N 24 28 13 15 1028.4 1028.5 0.0
27/08:00pm 8.3 3.1 3.8 73 1.9 NNW 20 24 11 13 1028.6 1028.7 0.0
27/07:30pm 8.2 2.6 3.5 72 2.0 NNW 22 24 12 13 1028.5 1028.6 0.0
27/07:00pm 8.0 3.6 4.6 79 1.5 NNW 17 19 9 10 1028.4 1028.5 0.0
27/06:30pm 7.9 3.9 4.7 80 1.4 NNW 15 17 8 9 1028.3 1028.4 0.0
27/06:00pm 7.1 3.6 3.5 78 1.5 WNW 11 13 6 7 1028.6 1028.7 0.0
27/05:30pm 8.7 5.7 2.3 64 2.7 WNW 7 11 4 6 1028.5 1028.6 0.0
27/05:00pm 8.7 4.8 1.4 60 3.0 NW 11 15 6 8 1028.5 1028.6 0.0
27/04:30pm 9.0 5.1 1.4 59 3.1 WNW 11 13 6 7 1028.7 1028.8 0.0
27/04:00pm 9.7 4.8 1.8 58 3.3 WNW 17 20 9 11 1028.6 1028.7 0.0
27/03:30pm 10.4 7.5 1.2 53 3.8 W 6 13 3 7 1028.3 1028.4 0.0
27/03:00pm 10.0 6.5 1.1 54 3.6 SW 9 15 5 8 1028.4 1028.5 0.0
27/02:30pm 10.2 5.4 0.3 50 4.0 WSW 15 20 8 11 1028.4 1028.5 0.0
27/02:00pm 10.2 5.9 1.3 54 3.7 WSW 13 20 7 11 1028.5 1028.6 0.0
27/01:30pm 10.0 5.2 0.3 51 3.9 WSW 15 20 8 11 1028.5 1028.6 0.0
27/01:00pm 9.7 4.6 0.6 53 3.7 WSW 17 24 9 13 1028.3 1028.4 0.0
27/12:30pm 9.9 5.1 0.3 51 3.9 WSW 15 22 8 12 1028.6 1028.7 0.0
27/12:00pm 9.6 3.9 0.5 53 3.7 SW 20 28 11 15 1028.6 1028.7 0.0
27/11:30am 9.7 4.6 3.2 64 2.8 SW 19 24 10 13 1028.9 1029.0 0.0
27/11:00am 9.4 5.0 2.9 64 2.8 WSW 15 20 8 11 1028.8 1028.9 0.0
27/10:30am 8.7 4.3 2.7 66 2.5 W 15 22 8 12 1028.8 1028.9 0.0
27/10:00am 7.9 3.1 2.4 68 2.3 WSW 17 22 9 12 1028.7 1028.8 0.0
27/09:30am 7.3 1.8 2.0 69 2.2 WNW 20 24 11 13 1028.3 1028.4 0.0
27/09:00am 8.0 1.1 2.3 67 2.4 SW 28 35 15 19 1027.6 1027.7 0.0
27/08:30am 7.2 3.4 1.5 67 2.3 SW 11 24 6 13 1027.4 1027.5 0.0
27/08:00am 6.2 0.7 1.9 74 1.7 W 20 26 11 14 1026.9 1027.0 0.0
27/07:30am 6.6 2.8 1.5 70 2.1 W 11 15 6 8 1026.7 1026.8 0.0
27/07:00am 6.8 0.9 1.7 70 2.1 WSW 22 30 12 16 1026.3 1026.4 0.0
27/06:30am 6.3 1.4 2.0 74 1.7 W 17 20 9 11 1026.3 1026.4 0.0
27/06:00am 5.8 0.9 1.9 76 1.6 WNW 17 20 9 11 1025.7 1025.8 0.0
27/05:30am 6.3 1.4 2.0 74 1.7 WSW 17 22 9 12 1025.3 1025.4 0.0
27/05:00am 6.7 2.7 2.6 75 1.7 SW 13 17 7 9 1025.1 1025.2 0.0
27/04:30am 5.8 2.2 2.8 81 1.2 W 11 13 6 7 1024.8 1024.9 0.0
27/04:00am 6.2 1.9 3.0 80 1.3 SSW 15 22 8 12 1024.5 1024.6 0.0
27/03:30am 7.0 2.1 2.1 71 2.0 SW 17 28 9 15 1024.3 1024.4 0.0
27/03:00am 6.6 2.0 1.7 71 2.0 W 15 17 8 9 1024.3 1024.4 0.0
27/02:30am 6.3 1.4 1.8 73 1.8 W 17 20 9 11 1024.2 1024.3 0.0
27/02:00am 6.4 0.5 1.5 71 2.0 WNW 22 26 12 14 1023.7 1023.8 0.0
27/01:30am 6.2 -0.1 1.7 73 1.8 WNW 24 26 13 14 1023.1 1023.2 0.0
27/01:00am 6.5 0.3 2.0 73 1.8 WNW 24 30 13 16 1022.9 1023.0 0.0
27/12:30am 6.4 0.3 2.5 76 1.6 W 24 30 13 16 1022.8 1022.9 0.0
27/12:00am 6.1 2.3 2.0 75 1.7 WNW 11 15 6 8 1022.8 1022.9 0.0
 
Date/Time
EST
Temp
°C
App
Temp
°C
Dew
Point
°C
Rel
Hum
%
Delta-T
°C
Wind Press
QNH
hPa
Press
MSL
hPa
Rain since
9am
mm
Dir  Spd
km/h
Gust
km/h
Spd
kts
Gust
kts
26/11:30pm 6.3 1.8 2.0 74 1.7 WNW 15 17 8 9 1022.6 1022.7 0.0
26/11:00pm 6.5 1.0 1.8 72 1.9 WNW 20 24 11 13 1022.3 1022.3 0.0
26/10:30pm 6.5 0.9 1.4 70 2.0 WNW 20 28 11 15 1022.0 1022.0 0.0
26/10:00pm 6.6 2.0 1.5 70 2.0 WNW 15 19 8 10 1022.0 1022.0 0.0
26/09:30pm 6.8 1.5 2.1 72 1.9 WNW 19 24 10 13 1021.8 1021.8 0.0
26/09:00pm 6.8 1.4 2.5 74 1.8 WNW 20 26 11 14 1021.4 1021.4 0.0
26/08:30pm 7.2 1.4 2.5 72 1.9 WNW 22 28 12 15 1021.0 1021.0 0.0
26/08:00pm 7.3 1.9 2.2 70 2.1 WNW 20 24 11 13 1020.8 1020.8 0.0
26/07:30pm 7.4 1.2 2.1 69 2.2 WNW 24 28 13 15 1020.2 1020.2 0.0
26/07:00pm 7.6 3.0 1.5 65 2.5 WNW 15 19 8 10 1019.9 1019.9 0.0

Other formats

Comma delimited format used in spreadsheet applications
http://www.bom.gov.au/fwo/IDT60801/IDT60801.95988.axf

JavaScript Object Notation format (JSON) in row-major order
http://www.bom.gov.au/fwo/IDT60801/IDT60801.95988.json

Data quality

Most of these data are generated automatically and are frequently updated. Quality checks on data are not normally performed. It is possible for incorrect values to appear. Refer to information at About Latest Weather Observations and please check the disclaimer before using these data.